createdAt,value
2022-11-10T00:00:07.780Z,100580.02
2022-11-10T00:03:13.150Z,100582.36
2022-11-10T00:05:58.363Z,100579.70
2022-11-10T00:08:44.055Z,100580.15
2022-11-10T00:11:29.828Z,100578.52
2022-11-10T00:14:33.771Z,100579.02
2022-11-10T00:17:19.443Z,100578.27
2022-11-10T00:20:05.950Z,100577.74
2022-11-10T00:22:51.387Z,100573.86
2022-11-10T00:25:36.597Z,100574.15
2022-11-10T00:28:22.031Z,100568.73
2022-11-10T00:31:07.982Z,100569.38
2022-11-10T00:33:53.771Z,100572.16
2022-11-10T00:36:39.658Z,100573.05
2022-11-10T00:39:25.570Z,100573.73
2022-11-10T00:42:11.184Z,100575.45
2022-11-10T00:44:56.541Z,100571.70
2022-11-10T00:47:42.368Z,100570.54
2022-11-10T00:50:28.177Z,100567.33
2022-11-10T00:53:13.559Z,100571.73
2022-11-10T00:55:58.841Z,100573.34
2022-11-10T00:58:44.582Z,100570.71
2022-11-10T01:01:30.207Z,100570.45
2022-11-10T01:04:15.953Z,100565.24
2022-11-10T01:07:01.418Z,100559.73
2022-11-10T01:09:46.882Z,100559.98
2022-11-10T01:12:32.163Z,100562.23
2022-11-10T01:15:18.655Z,100560.15
2022-11-10T01:18:06.615Z,100559.62
2022-11-10T01:20:52.158Z,100556.90
2022-11-10T01:23:38.031Z,100555.48
2022-11-10T01:26:24.170Z,100558.02
2022-11-10T01:29:09.385Z,100555.08
2022-11-10T01:31:54.626Z,100554.42
2022-11-10T01:39:00.732Z,100555.06
2022-11-10T01:41:46.540Z,100556.65
2022-11-10T01:44:34.859Z,100556.92
2022-11-10T01:47:20.620Z,100560.33
2022-11-10T01:50:06.930Z,100560.46
2022-11-10T01:52:55.670Z,100560.42
2022-11-10T01:55:43.282Z,100559.16
2022-11-10T01:58:34.003Z,100559.63
2022-11-10T02:01:20.091Z,100564.71
2022-11-10T02:04:10.422Z,100564.94
2022-11-10T02:06:57.588Z,100561.42
2022-11-10T02:09:42.957Z,100562.15
2022-11-10T02:12:36.355Z,100564.59
2022-11-10T02:15:22.637Z,100563.61
2022-11-10T02:18:08.677Z,100566.05
2022-11-10T02:20:53.920Z,100564.88
2022-11-10T02:23:39.502Z,100569.83
2022-11-10T02:26:29.374Z,100566.63
2022-11-10T02:29:15.054Z,100570.53
2022-11-10T02:32:00.364Z,100571.88
2022-11-10T02:34:45.528Z,100566.16
2022-11-10T02:37:31.310Z,100565.09
2022-11-10T02:40:16.892Z,100567.85
2022-11-10T02:43:09.528Z,100567.95
2022-11-10T02:45:54.716Z,100572.09
2022-11-10T02:48:40.006Z,100572.83
2022-11-10T02:51:25.317Z,100578.94
2022-11-10T02:54:10.793Z,100579.63
2022-11-10T02:56:55.978Z,100574.96
2022-11-10T02:59:41.342Z,100577.96
2022-11-10T03:02:31.950Z,100577.63
2022-11-10T03:05:17.799Z,100576.86
2022-11-10T03:08:03.778Z,100575.26
2022-11-10T03:10:53.658Z,100575.77
2022-11-10T03:13:58.999Z,100576.02
2022-11-10T03:16:44.509Z,100577.90
2022-11-10T03:19:29.604Z,100583.39
2022-11-10T03:22:15.423Z,100577.73
2022-11-10T03:25:00.497Z,100578.55
2022-11-10T03:27:45.739Z,100578.27
2022-11-10T03:30:30.971Z,100579.62
2022-11-10T03:33:16.962Z,100578.19
2022-11-10T03:36:02.658Z,100578.34
2022-11-10T03:38:48.027Z,100576.34
2022-11-10T03:41:33.655Z,100582.55
2022-11-10T03:44:18.810Z,100589.15
2022-11-10T03:47:04.322Z,100592.94
2022-11-10T03:49:49.796Z,100594.55
2022-11-10T03:52:38.386Z,100591.45
2022-11-10T03:55:24.097Z,100592.10
2022-11-10T03:58:09.321Z,100590.67
2022-11-10T04:00:54.573Z,100590.66
2022-11-10T04:03:39.953Z,100590.39
2022-11-10T04:06:44.411Z,100584.95
2022-11-10T04:09:30.001Z,100587.77
2022-11-10T04:12:34.023Z,100588.81
2022-11-10T04:15:38.315Z,100591.05
2022-11-10T04:18:24.117Z,100597.85
2022-11-10T04:21:10.487Z,100600.08
2022-11-10T04:23:56.034Z,100599.16
2022-11-10T04:26:42.395Z,100601.40
2022-11-10T04:29:28.045Z,100604.02
2022-11-10T04:32:13.060Z,100607.39
2022-11-10T04:34:58.333Z,100610.11
2022-11-10T04:37:46.075Z,100609.67
2022-11-10T04:40:31.413Z,100612.40
2022-11-10T04:43:16.593Z,100614.69
2022-11-10T04:46:03.696Z,100614.77
2022-11-10T04:48:49.288Z,100616.55
2022-11-10T04:51:37.154Z,100620.07
2022-11-10T04:54:22.696Z,100618.36
2022-11-10T04:57:07.922Z,100625.75
2022-11-10T04:59:53.218Z,100629.23
2022-11-10T05:02:39.801Z,100629.60
2022-11-10T05:05:25.688Z,100636.11
2022-11-10T05:08:11.687Z,100643.34
2022-11-10T05:10:57.422Z,100645.98
2022-11-10T05:13:44.376Z,100648.34
2022-11-10T05:16:29.743Z,100656.67
2022-11-10T05:19:14.936Z,100661.69
2022-11-10T05:22:00.548Z,100659.66
2022-11-10T05:24:45.884Z,100661.55
2022-11-10T05:27:31.742Z,100667.55
2022-11-10T05:30:17.568Z,100673.55
2022-11-10T05:33:04.107Z,100676.94
2022-11-10T05:35:50.760Z,100682.05
2022-11-10T05:38:40.528Z,100687.16
2022-11-10T05:41:28.847Z,100694.02
2022-11-10T05:44:14.011Z,100697.46
2022-11-10T05:46:59.380Z,100699.87
2022-11-10T05:49:44.585Z,100704.45
2022-11-10T05:52:29.945Z,100705.79
2022-11-10T05:55:17.577Z,100706.30
2022-11-10T05:58:03.342Z,100704.71
2022-11-10T06:00:49.040Z,100705.56
2022-11-10T06:03:34.741Z,100706.70
2022-11-10T06:06:20.088Z,100712.37
2022-11-10T06:09:05.757Z,100716.55
2022-11-10T06:11:51.400Z,100721.55
2022-11-10T06:14:37.199Z,100723.05
2022-11-10T06:17:22.575Z,100727.31
2022-11-10T06:20:08.664Z,100732.77
2022-11-10T06:23:10.117Z,100737.19
2022-11-10T06:25:55.619Z,100737.43
2022-11-10T06:28:40.861Z,100739.85
2022-11-10T06:31:26.305Z,100746.08
2022-11-10T06:34:11.927Z,100746.98
2022-11-10T06:36:57.358Z,100742.42
2022-11-10T06:39:42.949Z,100746.16
2022-11-10T06:42:28.634Z,100744.35
2022-11-10T06:45:14.008Z,100746.79
2022-11-10T06:48:11.134Z,100745.22
2022-11-10T06:51:02.056Z,100746.90
2022-11-10T06:53:48.266Z,100755.82
2022-11-10T06:56:34.457Z,100756.95
2022-11-10T06:59:20.041Z,100755.64
2022-11-10T07:02:05.837Z,100757.45
2022-11-10T07:04:51.631Z,100753.23
2022-11-10T07:07:37.493Z,100749.95
2022-11-10T07:10:23.015Z,100750.34
2022-11-10T07:13:09.562Z,100748.84
2022-11-10T07:15:54.796Z,100753.14
2022-11-10T07:18:40.630Z,100751.81
2022-11-10T07:21:25.941Z,100748.69
2022-11-10T07:24:11.761Z,100749.34
2022-11-10T07:26:57.508Z,100753.46
2022-11-10T07:29:43.277Z,100751.63
2022-11-10T07:32:28.878Z,100749.29
2022-11-10T07:35:14.510Z,100746.66
2022-11-10T07:38:05.916Z,100750.77
2022-11-10T07:40:53.203Z,100751.36
2022-11-10T07:43:39.006Z,100747.54
2022-11-10T07:46:24.576Z,100746.67
2022-11-10T07:49:09.978Z,100745.65
2022-11-10T07:51:55.628Z,100743.89
2022-11-10T07:54:40.841Z,100740.05
2022-11-10T07:57:25.992Z,100742.91
2022-11-10T08:00:12.196Z,100744.29
2022-11-10T08:03:02.792Z,100747.98
2022-11-10T08:05:48.747Z,100749.91
2022-11-10T08:08:34.438Z,100752.58
2022-11-10T08:11:20.130Z,100752.74
2022-11-10T08:14:05.875Z,100747.45
2022-11-10T08:16:51.929Z,100747.85
2022-11-10T08:19:37.844Z,100745.02
2022-11-10T08:22:23.170Z,100749.05
2022-11-10T08:25:08.879Z,100744.98
2022-11-10T08:27:59.427Z,100745.77
2022-11-10T08:30:47.412Z,100746.56
2022-11-10T08:33:33.074Z,100751.73
2022-11-10T08:36:18.546Z,100752.14
2022-11-10T08:39:04.456Z,100754.58
2022-11-10T08:41:49.866Z,100752.99
2022-11-10T08:44:35.147Z,100757.14
2022-11-10T08:47:20.409Z,100755.14
2022-11-10T08:50:07.411Z,100749.89
2022-11-10T08:52:52.907Z,100745.81
2022-11-10T08:55:39.584Z,100747.29
2022-11-10T08:58:25.574Z,100750.42
2022-11-10T09:01:11.650Z,100748.84
2022-11-10T09:03:57.349Z,100748.14
2022-11-10T09:06:42.656Z,100749.80
2022-11-10T09:09:28.366Z,100749.05
2022-11-10T09:12:13.719Z,100747.84
2022-11-10T09:14:58.881Z,100744.40
2022-11-10T09:17:44.809Z,100737.81
2022-11-10T09:20:33.200Z,100735.92
2022-11-10T09:23:19.345Z,100735.05
2022-11-10T09:26:06.632Z,100727.90
2022-11-10T09:28:52.435Z,100725.05
2022-11-10T09:31:37.797Z,100715.84
2022-11-10T09:34:23.328Z,100719.79
2022-11-10T09:37:08.855Z,100714.47
2022-11-10T09:39:55.887Z,100709.20
2022-11-10T09:42:47.213Z,100714.62
2022-11-10T09:45:40.011Z,100711.06
2022-11-10T09:48:29.522Z,100707.15
2022-11-10T09:51:35.507Z,100704.58
2022-11-10T09:54:34.221Z,100705.19
2022-11-10T09:57:25.431Z,100705.36
2022-11-10T10:00:16.638Z,100709.00
2022-11-10T10:03:04.861Z,100710.63
2022-11-10T10:06:04.517Z,100710.19
2022-11-10T10:09:05.359Z,100709.02
2022-11-10T10:12:23.845Z,100701.77
2022-11-10T10:15:12.235Z,100696.44
2022-11-10T10:17:57.617Z,100697.34
2022-11-10T10:21:04.201Z,100693.55
2022-11-10T10:24:09.293Z,100692.55
2022-11-10T10:27:03.051Z,100697.02
2022-11-10T10:29:48.906Z,100693.00
2022-11-10T10:32:34.604Z,100693.11
2022-11-10T10:35:20.315Z,100692.04
2022-11-10T10:38:15.792Z,100695.95
2022-11-10T10:41:36.179Z,100691.28
2022-11-10T10:44:21.962Z,100685.54
2022-11-10T10:47:07.274Z,100693.88
2022-11-10T10:50:14.365Z,100687.89
2022-11-10T10:53:18.509Z,100679.88
2022-11-10T10:56:13.584Z,100675.91
2022-11-10T10:59:03.826Z,100677.52
2022-11-10T11:01:56.691Z,100676.73
2022-11-10T11:04:42.384Z,100679.23
2022-11-10T11:07:28.087Z,100680.64
2022-11-10T11:10:22.846Z,100679.60
2022-11-10T11:13:15.722Z,100681.48
2022-11-10T11:16:08.013Z,100677.29
2022-11-10T11:18:53.506Z,100676.80
2022-11-10T11:21:44.564Z,100677.57
2022-11-10T11:24:37.683Z,100675.91
2022-11-10T11:27:35.767Z,100677.09
2022-11-10T11:30:30.925Z,100677.14
2022-11-10T11:33:37.817Z,100677.69
2022-11-10T11:36:48.300Z,100673.77
2022-11-10T11:39:49.132Z,100674.35
2022-11-10T11:42:46.878Z,100671.35
2022-11-10T11:45:54.698Z,100670.55
2022-11-10T11:49:02.006Z,100670.78
2022-11-10T11:51:56.348Z,100673.11
2022-11-10T11:54:54.073Z,100672.08
2022-11-10T11:57:42.547Z,100677.33
2022-11-10T12:00:31.555Z,100679.63
2022-11-10T12:03:35.838Z,100686.58
2022-11-10T12:06:29.985Z,100690.52
2022-11-10T12:09:39.387Z,100687.79
2022-11-10T12:12:50.986Z,100687.24
2022-11-10T12:16:06.954Z,100693.98
2022-11-10T12:19:21.193Z,100696.21
2022-11-10T12:22:06.554Z,100694.95
2022-11-10T12:25:07.448Z,100696.06
2022-11-10T12:28:00.900Z,100697.38
2022-11-10T12:30:50.706Z,100696.30
2022-11-10T12:33:43.326Z,100695.23
2022-11-10T12:36:31.115Z,100701.39
2022-11-10T12:39:30.231Z,100695.79
2022-11-10T12:42:21.360Z,100699.55
2022-11-10T12:45:31.112Z,100700.85
2022-11-10T12:48:18.260Z,100702.34
2022-11-10T12:51:14.072Z,100700.48
2022-11-10T12:53:59.792Z,100705.87
2022-11-10T12:56:51.400Z,100707.08
2022-11-10T12:59:49.184Z,100705.73
2022-11-10T13:02:46.585Z,100709.25
2022-11-10T13:05:37.100Z,100710.34
2022-11-10T13:08:33.136Z,100715.73
2022-11-10T13:11:32.887Z,100717.98
2022-11-10T13:14:22.610Z,100723.42
2022-11-10T13:17:10.565Z,100723.20
2022-11-10T13:20:14.196Z,100726.10
2022-11-10T13:23:26.069Z,100728.89
2022-11-10T13:26:40.251Z,100727.05
2022-11-10T13:29:52.086Z,100724.18
2022-11-10T13:32:39.768Z,100726.29
2022-11-10T13:35:28.260Z,100731.33
2022-11-10T13:38:32.001Z,100729.16
2022-11-10T13:41:17.375Z,100730.46
2022-11-10T13:44:02.851Z,100730.45
2022-11-10T13:47:03.811Z,100735.06
2022-11-10T13:50:07.892Z,100737.77
2022-11-10T13:53:06.349Z,100735.59
2022-11-10T13:56:10.143Z,100740.63
2022-11-10T13:58:56.974Z,100737.05
2022-11-10T14:01:42.726Z,100735.20
2022-11-10T14:04:41.708Z,100734.16
2022-11-10T14:07:37.915Z,100736.23
2022-11-10T14:10:39.732Z,100734.19
2022-11-10T14:13:41.286Z,100729.98
2022-11-10T14:16:30.888Z,100732.12
2022-11-10T14:19:16.109Z,100734.36
2022-11-10T14:22:14.007Z,100735.67
2022-11-10T14:25:28.967Z,100733.80
2022-11-10T14:28:33.517Z,100733.39
2022-11-10T14:31:21.917Z,100732.64
2022-11-10T14:34:14.435Z,100734.44
2022-11-10T14:37:02.916Z,100741.54
2022-11-10T14:39:53.576Z,100746.58
2022-11-10T14:42:39.455Z,100755.40
2022-11-10T14:45:27.198Z,100756.41
2022-11-10T14:48:19.490Z,100759.83
2022-11-10T14:51:13.605Z,100758.52
2022-11-10T14:53:59.169Z,100760.64
2022-11-10T14:56:44.911Z,100761.17
2022-11-10T14:59:30.440Z,100762.23
2022-11-10T15:02:19.060Z,100767.28
2022-11-10T15:05:05.271Z,100769.48
2022-11-10T15:07:56.021Z,100768.20
2022-11-10T15:10:55.956Z,100768.00
2022-11-10T15:13:41.738Z,100767.77
2022-11-10T15:16:38.028Z,100770.36
2022-11-10T15:19:31.089Z,100773.54
2022-11-10T15:22:20.477Z,100782.52
2022-11-10T15:25:17.660Z,100787.98
2022-11-10T15:28:12.607Z,100789.70
2022-11-10T15:31:05.069Z,100789.83
2022-11-10T15:33:54.416Z,100789.21
2022-11-10T15:36:39.533Z,100786.13
2022-11-10T15:39:26.582Z,100787.29
2022-11-10T15:42:24.036Z,100791.11
2022-11-10T15:45:09.727Z,100791.20
2022-11-10T15:47:55.242Z,100796.79
2022-11-10T15:50:42.083Z,100796.52
2022-11-10T15:53:31.645Z,100794.75
2022-11-10T15:56:23.045Z,100798.23
2022-11-10T15:59:09.904Z,100801.83
2022-11-10T16:01:56.066Z,100800.84
2022-11-10T16:04:41.606Z,100798.22
2022-11-10T16:07:26.839Z,100804.34
2022-11-10T16:10:12.452Z,100806.13
2022-11-10T16:12:57.723Z,100806.96
2022-11-10T16:15:47.316Z,100808.27
2022-11-10T16:18:33.025Z,100811.23
2022-11-10T16:21:24.833Z,100814.19
2022-11-10T16:24:09.987Z,100818.73
2022-11-10T16:26:55.309Z,100819.44
2022-11-10T16:29:41.940Z,100822.45
2022-11-10T16:32:27.300Z,100822.88
2022-11-10T16:35:13.473Z,100830.77
2022-11-10T16:37:59.127Z,100831.56
2022-11-10T16:40:45.508Z,100835.77
2022-11-10T16:43:31.247Z,100836.66
2022-11-10T16:46:25.207Z,100841.73
2022-11-10T16:49:32.460Z,100840.71
2022-11-10T16:52:20.692Z,100837.27
2022-11-10T16:55:06.171Z,100839.55
2022-11-10T16:57:51.724Z,100837.09
2022-11-10T17:00:39.423Z,100837.32
2022-11-10T17:03:33.115Z,100837.64
2022-11-10T17:06:20.997Z,100841.54
2022-11-10T17:09:16.720Z,100845.73
2022-11-10T17:12:02.391Z,100848.11
2022-11-10T17:14:48.815Z,100855.74
2022-11-10T17:17:35.515Z,100858.41
2022-11-10T17:20:32.632Z,100857.06
2022-11-10T17:23:21.303Z,100854.33
2022-11-10T17:26:12.464Z,100855.20
2022-11-10T17:28:58.174Z,100854.90
2022-11-10T17:31:44.706Z,100858.36
2022-11-10T17:34:30.277Z,100861.73
2022-11-10T17:37:16.615Z,100863.11
2022-11-10T17:40:15.372Z,100860.99
2022-11-10T17:43:00.837Z,100860.05
2022-11-10T17:45:46.118Z,100862.05
2022-11-10T17:48:31.788Z,100856.09
2022-11-10T17:51:20.328Z,100853.32
2022-11-10T17:54:12.860Z,100853.23
2022-11-10T17:56:58.828Z,100852.95
2022-11-10T17:59:44.592Z,100857.98
2022-11-10T18:02:30.295Z,100857.73
2022-11-10T18:05:17.555Z,100861.96
2022-11-10T18:08:02.707Z,100862.95
2022-11-10T18:10:50.627Z,100870.09
2022-11-10T18:13:38.070Z,100874.21
2022-11-10T18:16:23.423Z,100869.10
2022-11-10T18:19:09.894Z,100876.07
2022-11-10T18:21:55.235Z,100875.31
2022-11-10T18:24:41.905Z,100881.26
2022-11-10T18:27:27.747Z,100884.40
2022-11-10T18:30:16.458Z,100888.03
2022-11-10T18:33:02.563Z,100893.80
2022-11-10T18:35:47.921Z,100891.70
2022-11-10T18:38:33.413Z,100892.69
2022-11-10T18:41:37.396Z,100895.41
2022-11-10T18:44:23.179Z,100896.80
2022-11-10T18:47:11.907Z,100905.05
2022-11-10T18:49:57.790Z,100911.83
2022-11-10T18:52:44.690Z,100915.67
2022-11-10T18:55:30.494Z,100918.08
2022-11-10T18:58:16.115Z,100920.71
2022-11-10T19:01:09.809Z,100922.16
2022-11-10T19:03:55.775Z,100930.24
2022-11-10T19:06:41.131Z,100931.67
2022-11-10T19:09:26.671Z,100936.08
2022-11-10T19:12:12.881Z,100934.73
2022-11-10T19:14:58.341Z,100936.33
2022-11-10T19:17:43.573Z,100937.07
2022-11-10T19:20:29.087Z,100937.43
2022-11-10T19:23:14.667Z,100944.17
2022-11-10T19:26:04.471Z,100944.55
2022-11-10T19:28:52.750Z,100948.21
2022-11-10T19:31:38.232Z,100953.06
2022-11-10T19:34:24.094Z,100950.81
2022-11-10T19:37:12.344Z,100952.02
2022-11-10T19:39:57.946Z,100961.55
2022-11-10T19:42:43.378Z,100964.05
2022-11-10T19:45:28.779Z,100969.66
2022-11-10T19:48:14.502Z,100972.73
2022-11-10T19:51:06.035Z,100974.97
2022-11-10T19:54:01.007Z,100975.89
2022-11-10T19:56:46.751Z,100977.42
2022-11-10T19:59:32.883Z,100973.38
2022-11-10T20:02:18.442Z,100974.00
2022-11-10T20:05:13.503Z,100972.46
2022-11-10T20:08:16.525Z,100979.88
2022-11-10T20:11:31.535Z,100982.43
2022-11-10T20:14:17.017Z,100993.11
2022-11-10T20:17:02.237Z,100994.00
2022-11-10T20:19:48.482Z,100994.89
2022-11-10T20:22:33.578Z,100995.23
2022-11-10T20:25:18.954Z,100995.61
2022-11-10T20:28:08.173Z,100988.04
2022-11-10T20:30:56.113Z,100989.42
2022-11-10T20:33:42.528Z,100996.23
2022-11-10T20:36:29.995Z,100998.21
2022-11-10T20:39:15.496Z,101000.05
2022-11-10T20:42:01.970Z,100995.59
2022-11-10T20:44:47.334Z,101004.34
2022-11-10T20:47:33.231Z,101011.34
2022-11-10T20:50:23.967Z,101018.20
2022-11-10T20:53:10.238Z,101020.52
2022-11-10T20:56:01.324Z,101024.64
2022-11-10T20:58:47.045Z,101026.67
2022-11-10T21:01:33.015Z,101030.89
2022-11-10T21:04:18.786Z,101025.90
2022-11-10T21:07:04.615Z,101027.25
2022-11-10T21:09:49.982Z,101031.59
2022-11-10T21:12:50.535Z,101037.48
2022-11-10T21:15:39.376Z,101044.14
2022-11-10T21:18:33.293Z,101039.32
2022-11-10T21:21:22.019Z,101047.78
2022-11-10T21:24:08.787Z,101048.17
2022-11-10T21:26:55.141Z,101054.79
2022-11-10T21:29:41.764Z,101061.41
2022-11-10T21:32:27.484Z,101067.31
2022-11-10T21:35:12.780Z,101072.31
2022-11-10T21:37:58.696Z,101079.06
2022-11-10T21:40:44.989Z,101086.83
2022-11-10T21:43:31.291Z,101087.26
2022-11-10T21:46:17.582Z,101086.27
2022-11-10T21:49:07.692Z,101087.06
2022-11-10T21:51:53.520Z,101092.17
2022-11-10T21:54:38.865Z,101091.02
2022-11-10T21:57:24.728Z,101090.14
2022-11-10T22:00:12.004Z,101091.53
2022-11-10T22:03:01.859Z,101091.69
2022-11-10T22:05:46.944Z,101093.34
2022-11-10T22:08:32.987Z,101098.02
2022-11-10T22:11:38.577Z,101097.50
2022-11-10T22:14:42.702Z,101095.14
2022-11-10T22:17:46.792Z,101096.45
2022-11-10T22:20:32.144Z,101100.77
2022-11-10T22:23:17.248Z,101103.27
2022-11-10T22:26:02.321Z,101100.95
2022-11-10T22:28:47.993Z,101101.20
2022-11-10T22:31:33.856Z,101103.95
2022-11-10T22:34:19.673Z,101113.15
2022-11-10T22:37:05.806Z,101117.03
2022-11-10T22:40:09.719Z,101116.88
2022-11-10T22:43:14.297Z,101125.78
2022-11-10T22:46:00.096Z,101127.43
2022-11-10T22:48:45.709Z,101129.54
2022-11-10T22:51:32.081Z,101132.14
2022-11-10T22:54:19.739Z,101139.29
2022-11-10T22:57:04.928Z,101140.13
2022-11-10T22:59:50.165Z,101141.30
2022-11-10T23:02:35.645Z,101139.33
2022-11-10T23:05:21.020Z,101140.77
2022-11-10T23:08:06.213Z,101142.02
2022-11-10T23:11:12.336Z,101150.21
2022-11-10T23:13:57.856Z,101150.80
2022-11-10T23:16:43.738Z,101155.01
2022-11-10T23:19:28.971Z,101164.75
2022-11-10T23:22:14.314Z,101167.44
2022-11-10T23:24:59.715Z,101170.73
2022-11-10T23:27:44.980Z,101171.20
2022-11-10T23:30:32.458Z,101168.16
2022-11-10T23:33:17.790Z,101169.27
2022-11-10T23:36:03.813Z,101173.66
2022-11-10T23:38:49.617Z,101179.05
2022-11-10T23:41:34.950Z,101175.77
2022-11-10T23:44:20.189Z,101178.37
2022-11-10T23:47:05.299Z,101180.39
2022-11-10T23:49:50.523Z,101184.02
2022-11-10T23:52:35.666Z,101182.80
2022-11-10T23:55:20.837Z,101188.05
2022-11-10T23:58:06.183Z,101186.87
